createdAt,value
2017-09-02T00:01:41.141Z,13.30
2017-09-02T00:04:08.670Z,13.30
2017-09-02T00:06:36.239Z,13.30
2017-09-02T00:09:03.773Z,13.20
2017-09-02T00:11:31.338Z,13.20
2017-09-02T00:13:59.427Z,13.20
2017-09-02T00:16:26.960Z,13.10
2017-09-02T00:18:54.493Z,13.10
2017-09-02T00:21:22.038Z,13.10
2017-09-02T00:23:49.580Z,13.00
2017-09-02T00:26:17.131Z,13.00
2017-09-02T00:28:44.663Z,13.00
2017-09-02T00:31:12.234Z,13.00
2017-09-02T00:33:39.765Z,13.00
2017-09-02T00:36:07.303Z,13.00
2017-09-02T00:38:34.869Z,13.00
2017-09-02T00:41:02.395Z,13.00
2017-09-02T00:43:29.936Z,13.00
2017-09-02T00:45:57.463Z,13.10
2017-09-02T00:48:25.019Z,13.10
2017-09-02T00:50:52.544Z,13.00
2017-09-02T00:53:20.093Z,13.00
2017-09-02T00:55:47.633Z,13.00
2017-09-02T00:58:15.182Z,13.00
2017-09-02T01:00:42.713Z,13.00
2017-09-02T01:03:10.241Z,12.90
2017-09-02T01:05:37.787Z,12.90
2017-09-02T01:08:05.311Z,12.90
2017-09-02T01:10:32.860Z,12.90
2017-09-02T01:13:01.253Z,12.90
2017-09-02T01:15:29.536Z,12.90
2017-09-02T01:17:57.073Z,12.90
2017-09-02T01:20:24.663Z,12.90
2017-09-02T01:22:52.204Z,12.90
2017-09-02T01:25:19.759Z,12.90
2017-09-02T01:27:47.297Z,12.90
2017-09-02T01:30:20.440Z,12.90
2017-09-02T01:32:47.977Z,12.90
2017-09-02T01:35:15.518Z,12.90
2017-09-02T01:37:43.077Z,12.90
2017-09-02T01:40:10.609Z,12.90
2017-09-02T01:42:38.165Z,12.90
2017-09-02T01:45:05.700Z,12.90
2017-09-02T01:47:33.253Z,12.90
2017-09-02T01:50:02.112Z,12.80
2017-09-02T01:52:30.929Z,12.80
2017-09-02T01:54:58.489Z,12.80
2017-09-02T01:57:26.046Z,12.70
2017-09-02T01:59:53.610Z,12.60
2017-09-02T02:02:21.147Z,12.60
2017-09-02T02:04:48.709Z,12.60
2017-09-02T02:07:16.253Z,12.60
2017-09-02T02:09:43.805Z,12.60
2017-09-02T02:12:11.342Z,12.60
2017-09-02T02:14:38.899Z,12.60
2017-09-02T02:17:06.433Z,12.60
2017-09-02T02:19:33.981Z,12.60
2017-09-02T02:22:01.545Z,12.60
2017-09-02T02:24:29.494Z,12.60
2017-09-02T02:26:57.047Z,12.60
2017-09-02T02:29:24.592Z,12.60
2017-09-02T02:31:52.159Z,12.60
2017-09-02T02:34:19.693Z,12.60
2017-09-02T02:36:47.256Z,12.60
2017-09-02T02:39:14.809Z,12.60
2017-09-02T02:41:42.360Z,12.70
2017-09-02T02:44:09.983Z,12.70
2017-09-02T02:46:37.537Z,12.70
2017-09-02T02:49:05.087Z,12.70
2017-09-02T02:51:33.021Z,12.60
2017-09-02T02:54:01.181Z,12.60
2017-09-02T02:56:28.739Z,12.60
2017-09-02T02:58:57.169Z,12.60
2017-09-02T03:01:24.706Z,12.60
2017-09-02T03:03:52.257Z,12.60
2017-09-02T03:06:19.785Z,12.60
2017-09-02T03:08:47.365Z,12.60
2017-09-02T03:11:14.937Z,12.60
2017-09-02T03:13:42.491Z,12.60
2017-09-02T03:16:10.039Z,12.60
2017-09-02T03:18:37.589Z,12.60
2017-09-02T03:21:05.149Z,12.50
2017-09-02T03:23:32.681Z,12.50
2017-09-02T03:26:00.956Z,12.50
2017-09-02T03:28:28.493Z,12.50
2017-09-02T03:30:56.052Z,12.50
2017-09-02T03:33:23.583Z,12.50
2017-09-02T03:35:51.150Z,12.50
2017-09-02T03:38:18.699Z,12.50
2017-09-02T03:40:46.269Z,12.50
2017-09-02T03:43:13.805Z,12.60
2017-09-02T03:45:41.343Z,12.50
2017-09-02T03:48:08.901Z,12.50
2017-09-02T03:50:36.433Z,12.50
2017-09-02T03:53:04.013Z,12.50
2017-09-02T03:55:31.548Z,12.50
2017-09-02T03:57:59.525Z,12.50
2017-09-02T04:00:27.065Z,12.40
2017-09-02T04:02:54.631Z,12.40
2017-09-02T04:05:22.185Z,12.40
2017-09-02T04:07:49.725Z,12.40
2017-09-02T04:10:17.281Z,12.40
2017-09-02T04:12:44.797Z,12.40
2017-09-02T04:15:12.351Z,12.40
2017-09-02T04:17:39.880Z,12.30
2017-09-02T04:20:07.436Z,12.40
2017-09-02T04:22:34.965Z,12.40
2017-09-02T04:25:02.530Z,12.40
2017-09-02T04:27:30.511Z,12.40
2017-09-02T04:29:58.063Z,12.30
2017-09-02T04:32:25.600Z,12.30
2017-09-02T04:34:53.152Z,12.30
2017-09-02T04:37:20.706Z,12.30
2017-09-02T04:39:48.305Z,12.30
2017-09-02T04:42:16.905Z,12.30
2017-09-02T04:44:44.440Z,12.20
2017-09-02T04:47:11.997Z,12.30
2017-09-02T04:49:39.557Z,12.30
2017-09-02T04:52:07.242Z,12.30
2017-09-02T04:54:34.796Z,12.40
2017-09-02T04:57:02.361Z,12.30
2017-09-02T04:59:30.953Z,12.40
2017-09-02T05:01:58.522Z,12.40
2017-09-02T05:04:26.058Z,12.40
2017-09-02T05:06:53.619Z,12.40
2017-09-02T05:09:21.166Z,12.40
2017-09-02T05:11:48.696Z,12.40
2017-09-02T05:14:16.290Z,12.40
2017-09-02T05:16:43.826Z,12.40
2017-09-02T05:19:11.359Z,12.50
2017-09-02T05:21:38.925Z,12.50
2017-09-02T05:24:06.481Z,12.50
2017-09-02T05:26:34.008Z,12.50
2017-09-02T05:29:01.574Z,12.50
2017-09-02T05:31:29.565Z,12.50
2017-09-02T05:33:57.126Z,12.60
2017-09-02T05:36:24.648Z,12.60
2017-09-02T05:38:52.217Z,12.60
2017-09-02T05:41:19.759Z,12.70
2017-09-02T05:43:47.309Z,12.70
2017-09-02T05:46:14.859Z,12.70
2017-09-02T05:48:42.387Z,12.70
2017-09-02T05:51:09.963Z,12.80
2017-09-02T05:53:37.509Z,12.80
2017-09-02T05:56:05.077Z,12.80
2017-09-02T05:58:32.643Z,12.80
2017-09-02T06:01:00.187Z,12.80
2017-09-02T06:03:27.715Z,12.90
2017-09-02T06:05:55.290Z,12.90
2017-09-02T06:08:22.829Z,12.90
2017-09-02T06:10:50.359Z,12.90
2017-09-02T06:13:17.944Z,13.00
2017-09-02T06:15:45.479Z,13.00
2017-09-02T06:18:13.029Z,13.00
2017-09-02T06:20:40.560Z,13.10
2017-09-02T06:23:08.154Z,13.10
2017-09-02T06:25:35.700Z,13.10
2017-09-02T06:28:03.286Z,13.10
2017-09-02T06:30:31.900Z,13.10
2017-09-02T06:33:00.653Z,13.10
2017-09-02T06:35:28.191Z,13.10
2017-09-02T06:37:55.725Z,13.10
2017-09-02T06:40:23.276Z,13.00
2017-09-02T06:42:50.817Z,13.10
2017-09-02T06:45:18.367Z,13.10
2017-09-02T06:47:45.912Z,13.10
2017-09-02T06:50:13.468Z,13.10
2017-09-02T06:52:41.031Z,13.10
2017-09-02T06:55:08.562Z,13.10
2017-09-02T06:57:36.091Z,13.10
2017-09-02T07:00:03.621Z,13.20
2017-09-02T07:02:32.307Z,13.20
2017-09-02T07:05:00.849Z,13.30
2017-09-02T07:07:28.439Z,13.30
2017-09-02T07:09:55.988Z,13.30
2017-09-02T07:12:23.520Z,13.30
2017-09-02T07:14:51.070Z,13.30
2017-09-02T07:17:18.592Z,13.30
2017-09-02T07:19:49.694Z,13.30
2017-09-02T07:22:17.312Z,13.30
2017-09-02T07:24:44.861Z,13.30
2017-09-02T07:27:12.397Z,13.40
2017-09-02T07:29:39.969Z,13.40
2017-09-02T07:32:07.533Z,13.50
2017-09-02T07:34:35.087Z,13.50
2017-09-02T07:37:02.637Z,13.50
2017-09-02T07:39:30.539Z,13.60
2017-09-02T07:41:59.163Z,13.60
2017-09-02T07:44:26.689Z,13.70
2017-09-02T07:46:54.236Z,13.80
2017-09-02T07:49:21.772Z,13.90
2017-09-02T07:51:49.339Z,14.10
2017-09-02T07:54:16.885Z,14.20
2017-09-02T07:56:44.427Z,14.40
2017-09-02T07:59:11.958Z,14.40
2017-09-02T08:01:39.515Z,14.40
2017-09-02T08:04:07.071Z,14.40
2017-09-02T08:06:34.613Z,14.40
2017-09-02T08:09:02.168Z,14.50
2017-09-02T08:11:30.481Z,14.50
2017-09-02T08:13:58.043Z,14.50
2017-09-02T08:16:25.563Z,14.60
2017-09-02T08:18:53.121Z,14.60
2017-09-02T08:21:20.653Z,14.60
2017-09-02T08:23:48.240Z,14.80
2017-09-02T08:26:15.780Z,14.90
2017-09-02T08:28:43.322Z,15.20
2017-09-02T08:31:10.869Z,15.50
2017-09-02T08:33:38.436Z,15.90
2017-09-02T08:36:06.005Z,16.20
2017-09-02T08:38:33.528Z,16.30
2017-09-02T08:41:01.726Z,16.10
2017-09-02T08:43:29.720Z,16.00
2017-09-02T08:45:57.278Z,15.90
2017-09-02T08:48:24.810Z,15.80
2017-09-02T08:50:52.370Z,15.80
2017-09-02T08:53:19.906Z,15.80
2017-09-02T08:55:47.465Z,15.80
2017-09-02T08:58:15.021Z,15.70
2017-09-02T09:00:42.562Z,15.70
2017-09-02T09:03:10.123Z,15.70
2017-09-02T09:05:37.677Z,15.60
2017-09-02T09:08:05.276Z,15.60
2017-09-02T09:10:32.842Z,15.60
2017-09-02T09:13:01.624Z,15.60
2017-09-02T09:15:29.696Z,15.40
2017-09-02T09:17:57.241Z,15.40
2017-09-02T09:20:24.773Z,15.40
2017-09-02T09:22:52.310Z,15.50
2017-09-02T09:25:19.845Z,15.50
2017-09-02T09:27:47.405Z,15.40
2017-09-02T09:30:14.965Z,15.50
2017-09-02T09:32:42.509Z,15.50
2017-09-02T09:35:10.048Z,15.50
2017-09-02T09:37:37.574Z,15.50
2017-09-02T09:40:05.149Z,15.50
2017-09-02T09:42:32.706Z,15.50
2017-09-02T09:45:00.285Z,15.50
2017-09-02T09:47:27.818Z,15.50
2017-09-02T09:49:55.409Z,15.50
2017-09-02T09:52:22.948Z,15.60
2017-09-02T09:54:50.522Z,15.60
2017-09-02T09:57:18.061Z,15.60
2017-09-02T09:59:45.594Z,15.60
2017-09-02T10:02:13.137Z,15.50
2017-09-02T10:04:40.665Z,15.50
2017-09-02T10:07:08.236Z,15.60
2017-09-02T10:09:35.766Z,15.60
2017-09-02T10:12:03.314Z,15.60
2017-09-02T10:14:31.810Z,15.70
2017-09-02T10:16:59.835Z,15.80
2017-09-02T10:19:27.453Z,16.00
2017-09-02T10:21:55.088Z,16.30
2017-09-02T10:24:22.621Z,16.40
2017-09-02T10:26:50.169Z,16.50
2017-09-02T10:29:17.720Z,16.60
2017-09-02T10:31:45.264Z,16.70
2017-09-02T10:34:12.846Z,16.80
2017-09-02T10:36:40.401Z,16.80
2017-09-02T10:39:07.967Z,16.80
2017-09-02T10:41:35.554Z,16.70
2017-09-02T10:44:03.113Z,16.70
2017-09-02T10:46:31.872Z,16.60
2017-09-02T10:49:00.140Z,16.80
2017-09-02T10:51:27.700Z,16.80
2017-09-02T10:53:55.272Z,16.80
2017-09-02T10:56:22.824Z,16.80
2017-09-02T10:58:50.557Z,16.90
2017-09-02T11:01:18.103Z,17.10
2017-09-02T11:03:45.639Z,17.20
2017-09-02T11:06:14.014Z,17.40
2017-09-02T11:08:41.568Z,17.50
2017-09-02T11:11:09.127Z,17.60
2017-09-02T11:13:36.730Z,17.70
2017-09-02T11:16:04.333Z,17.90
2017-09-02T11:18:32.263Z,18.10
2017-09-02T11:21:00.879Z,18.30
2017-09-02T11:23:28.444Z,18.40
2017-09-02T11:25:55.990Z,18.40
2017-09-02T11:28:23.552Z,18.40
2017-09-02T11:30:51.079Z,18.30
2017-09-02T11:33:18.642Z,18.10
2017-09-02T11:35:46.184Z,17.90
2017-09-02T11:38:13.760Z,17.70
2017-09-02T11:40:41.308Z,17.40
2017-09-02T11:43:08.931Z,17.10
2017-09-02T11:45:36.465Z,17.00
2017-09-02T11:48:04.014Z,16.90
2017-09-02T11:50:31.580Z,16.80
2017-09-02T11:52:59.776Z,16.70
2017-09-02T11:55:27.362Z,16.70
2017-09-02T11:57:54.936Z,16.60
2017-09-02T12:00:22.483Z,16.60
2017-09-02T12:02:50.017Z,16.50
2017-09-02T12:05:17.573Z,16.50
2017-09-02T12:07:45.119Z,16.50
2017-09-02T12:10:12.679Z,16.40
2017-09-02T12:12:40.222Z,16.40
2017-09-02T12:15:07.818Z,16.40
2017-09-02T12:17:35.372Z,16.40
2017-09-02T12:20:02.909Z,16.50
2017-09-02T12:22:30.467Z,16.40
2017-09-02T12:24:58.005Z,16.20
2017-09-02T12:27:25.568Z,16.10
2017-09-02T12:29:53.089Z,15.90
2017-09-02T12:32:20.637Z,15.80
2017-09-02T12:34:48.157Z,15.70
2017-09-02T12:37:15.714Z,15.50
2017-09-02T12:39:43.253Z,15.40
2017-09-02T12:42:10.823Z,15.40
2017-09-02T12:44:38.385Z,15.40
2017-09-02T12:47:05.948Z,15.40
2017-09-02T12:49:33.463Z,15.40
2017-09-02T12:52:02.117Z,15.50
2017-09-02T12:54:30.769Z,15.50
2017-09-02T12:56:58.308Z,15.50
2017-09-02T12:59:25.898Z,15.60
2017-09-02T13:01:53.428Z,15.70
2017-09-02T13:04:20.986Z,15.80
2017-09-02T13:06:48.536Z,15.90
2017-09-02T13:09:16.093Z,15.90
2017-09-02T13:11:43.635Z,16.00
2017-09-02T13:14:11.174Z,16.00
2017-09-02T13:16:38.705Z,16.10
2017-09-02T13:19:06.255Z,16.20
2017-09-02T13:21:34.236Z,16.30
2017-09-02T13:24:01.784Z,16.40
2017-09-02T13:26:29.896Z,16.40
2017-09-02T13:28:57.434Z,16.50
2017-09-02T13:31:24.984Z,16.60
2017-09-02T13:33:52.524Z,16.80
2017-09-02T13:36:20.103Z,16.90
2017-09-02T13:38:47.644Z,17.10
2017-09-02T13:41:15.273Z,17.40
2017-09-02T13:43:42.828Z,17.60
2017-09-02T13:46:10.356Z,17.60
2017-09-02T13:48:37.918Z,17.70
2017-09-02T13:51:05.441Z,17.40
2017-09-02T13:53:32.998Z,17.10
2017-09-02T13:56:02.281Z,16.50
2017-09-02T13:58:30.389Z,16.20
2017-09-02T14:00:57.969Z,16.00
2017-09-02T14:03:25.528Z,15.80
2017-09-02T14:05:53.070Z,15.50
2017-09-02T14:08:20.644Z,15.20
2017-09-02T14:10:48.173Z,15.00
2017-09-02T14:13:15.709Z,14.60
2017-09-02T14:15:43.270Z,14.20
2017-09-02T14:18:10.799Z,13.90
2017-09-02T14:20:38.350Z,13.70
2017-09-02T14:23:05.889Z,13.50
2017-09-02T14:25:33.837Z,13.40
2017-09-02T14:28:02.717Z,13.20
2017-09-02T14:30:30.830Z,13.20
2017-09-02T14:32:58.608Z,13.10
2017-09-02T14:35:26.160Z,13.10
2017-09-02T14:37:53.848Z,13.00
2017-09-02T14:40:21.423Z,12.90
2017-09-02T14:42:49.083Z,12.90
2017-09-02T14:45:16.606Z,12.80
2017-09-02T14:47:44.144Z,12.80
2017-09-02T14:50:11.677Z,12.90
2017-09-02T14:52:39.216Z,12.80
2017-09-02T14:55:06.764Z,12.80
2017-09-02T14:57:34.302Z,12.70
2017-09-02T15:00:01.965Z,12.80
2017-09-02T15:02:29.924Z,12.80
2017-09-02T15:04:57.454Z,12.80
2017-09-02T15:07:24.981Z,12.90
2017-09-02T15:09:52.532Z,12.90
2017-09-02T15:12:20.088Z,12.90
2017-09-02T15:14:47.656Z,13.00
2017-09-02T15:17:15.180Z,13.00
2017-09-02T15:19:42.712Z,13.00
2017-09-02T15:22:10.262Z,13.10
2017-09-02T15:24:37.816Z,13.10
2017-09-02T15:27:05.356Z,13.10
2017-09-02T15:29:33.369Z,13.10
2017-09-02T15:32:01.756Z,13.10
2017-09-02T15:34:29.963Z,13.10
2017-09-02T15:36:57.529Z,13.20
2017-09-02T15:39:25.061Z,13.20
2017-09-02T15:41:52.615Z,13.30
2017-09-02T15:44:20.128Z,13.30
2017-09-02T15:46:47.708Z,13.30
2017-09-02T15:49:15.223Z,13.30
2017-09-02T15:51:43.312Z,13.40
2017-09-02T15:54:11.013Z,13.40
2017-09-02T15:56:38.681Z,13.40
2017-09-02T15:59:06.215Z,13.40
2017-09-02T16:01:33.754Z,13.40
2017-09-02T16:04:02.535Z,13.40
2017-09-02T16:06:30.924Z,13.40
2017-09-02T16:08:58.484Z,13.40
2017-09-02T16:11:26.077Z,13.40
2017-09-02T16:13:53.636Z,13.50
2017-09-02T16:16:21.242Z,13.50
2017-09-02T16:18:48.793Z,13.50
2017-09-02T16:21:16.358Z,13.60
2017-09-02T16:23:43.977Z,13.60
2017-09-02T16:26:11.591Z,13.60
2017-09-02T16:28:39.132Z,13.60
2017-09-02T16:31:06.689Z,13.70
2017-09-02T16:33:34.222Z,13.70
2017-09-02T16:36:01.790Z,13.70
2017-09-02T16:38:29.961Z,13.60
2017-09-02T16:40:57.513Z,13.70
2017-09-02T16:43:25.056Z,13.70
2017-09-02T16:45:52.607Z,13.70
2017-09-02T16:48:20.140Z,13.70
2017-09-02T16:50:47.727Z,13.80
2017-09-02T16:53:15.269Z,13.80
2017-09-02T16:55:42.798Z,13.90
2017-09-02T16:58:10.353Z,13.90
2017-09-02T17:00:38.003Z,13.90
2017-09-02T17:03:05.552Z,14.00
2017-09-02T17:08:36.016Z,14.10
2017-09-02T17:11:03.558Z,14.20
2017-09-02T17:13:31.178Z,14.20
2017-09-02T17:16:18.437Z,14.30
2017-09-02T17:18:45.992Z,14.40
2017-09-02T17:21:13.504Z,14.40
2017-09-02T17:23:41.060Z,14.40
2017-09-02T17:29:11.431Z,14.40
2017-09-02T17:31:38.962Z,14.40
2017-09-02T17:34:06.529Z,14.40
2017-09-02T17:36:34.065Z,14.40
2017-09-02T17:39:01.574Z,14.30
2017-09-02T17:41:30.161Z,14.30
2017-09-02T17:43:57.715Z,14.30
2017-09-02T17:46:25.316Z,14.20
2017-09-02T17:48:52.873Z,14.20
2017-09-02T17:51:21.455Z,14.20
2017-09-02T17:53:49.016Z,14.20
2017-09-02T17:56:16.574Z,14.10
2017-09-02T17:58:44.140Z,14.00
2017-09-02T18:01:11.860Z,14.00
2017-09-02T18:03:39.408Z,14.00
2017-09-02T18:06:06.999Z,14.00
2017-09-02T18:08:34.566Z,13.90
2017-09-02T18:11:02.104Z,13.90
2017-09-02T18:13:29.637Z,13.80
2017-09-02T18:15:57.225Z,13.70
2017-09-02T18:18:24.759Z,13.60
2017-09-02T18:20:52.299Z,13.50
2017-09-02T18:23:20.577Z,13.50
2017-09-02T18:25:48.112Z,13.40
2017-09-02T18:31:18.445Z,13.20
2017-09-02T18:33:46.005Z,13.10
2017-09-02T18:36:13.532Z,13.10
2017-09-02T18:38:41.150Z,13.00
2017-09-02T18:41:08.688Z,13.00
2017-09-02T18:43:36.399Z,13.00
2017-09-02T18:46:03.922Z,13.00
2017-09-02T18:48:31.679Z,13.00
2017-09-02T18:50:59.246Z,13.00
2017-09-02T18:53:26.868Z,13.00
2017-09-02T18:55:54.489Z,12.90
2017-09-02T18:58:22.077Z,12.90
2017-09-02T19:00:49.898Z,12.80
2017-09-02T19:03:17.536Z,12.80
2017-09-02T19:05:45.168Z,12.70
2017-09-02T19:08:12.760Z,12.70
2017-09-02T19:10:40.390Z,12.70
2017-09-02T19:13:07.981Z,12.60
2017-09-02T19:15:35.602Z,12.60
2017-09-02T19:18:03.223Z,12.60
2017-09-02T19:20:30.866Z,12.50
2017-09-02T19:22:58.448Z,12.50
2017-09-02T19:25:26.051Z,12.40
2017-09-02T19:27:53.600Z,12.40
2017-09-02T19:30:21.314Z,12.40
2017-09-02T19:32:48.991Z,12.40
2017-09-02T19:35:17.000Z,12.40
2017-09-02T19:37:44.586Z,12.30
2017-09-02T19:40:12.125Z,12.30
2017-09-02T19:42:39.735Z,12.20
2017-09-02T19:45:07.312Z,12.20
2017-09-02T19:47:34.927Z,12.30
2017-09-02T19:50:02.531Z,12.20
2017-09-02T19:52:30.150Z,12.20
2017-09-02T19:54:57.849Z,12.20
2017-09-02T19:57:25.399Z,12.20
2017-09-02T19:59:53.183Z,12.20
2017-09-02T20:02:20.745Z,12.10
2017-09-02T20:04:49.637Z,12.20
2017-09-02T20:07:18.383Z,12.10
2017-09-02T20:09:46.173Z,12.10
2017-09-02T20:12:14.455Z,12.10
2017-09-02T20:14:42.154Z,12.00
2017-09-02T20:17:09.756Z,12.00
2017-09-02T20:19:37.396Z,11.90
2017-09-02T20:22:04.978Z,11.90
2017-09-02T20:24:32.727Z,11.90
2017-09-02T20:27:00.260Z,11.90
2017-09-02T20:29:27.941Z,11.90
2017-09-02T20:31:55.569Z,11.90
2017-09-02T20:34:23.276Z,11.90
2017-09-02T20:36:50.828Z,11.90
2017-09-02T20:39:19.513Z,11.90
2017-09-02T20:41:48.541Z,11.90
2017-09-02T20:44:16.070Z,12.00
2017-09-02T20:46:43.632Z,12.00
2017-09-02T20:49:11.159Z,12.00
2017-09-02T20:51:39.809Z,12.00
2017-09-02T20:54:07.331Z,12.00
2017-09-02T20:56:34.995Z,12.00
2017-09-02T20:59:02.604Z,12.00
2017-09-02T21:01:30.293Z,11.90
2017-09-02T21:03:57.846Z,12.00
2017-09-02T21:06:25.552Z,11.90
2017-09-02T21:08:53.103Z,11.90
2017-09-02T21:11:20.643Z,11.90
2017-09-02T21:13:49.672Z,11.90
2017-09-02T21:16:18.042Z,11.90
2017-09-02T21:18:45.624Z,11.90
2017-09-02T21:21:13.152Z,11.80
2017-09-02T21:23:40.708Z,11.80
2017-09-02T21:26:08.293Z,11.70
2017-09-02T21:28:35.955Z,11.70
2017-09-02T21:31:03.576Z,11.70
2017-09-02T21:33:31.103Z,11.70
2017-09-02T21:35:58.656Z,11.60
2017-09-02T21:38:26.182Z,11.60
2017-09-02T21:40:53.766Z,11.60
2017-09-02T21:43:21.331Z,11.60
2017-09-02T21:45:49.000Z,11.60
2017-09-02T21:48:17.059Z,11.50
2017-09-02T21:50:44.706Z,11.50
2017-09-02T21:53:12.255Z,11.50
2017-09-02T21:55:39.975Z,11.40
2017-09-02T21:58:07.507Z,11.40
2017-09-02T22:00:35.093Z,11.30
2017-09-02T22:03:02.651Z,11.20
2017-09-02T22:05:30.193Z,11.20
2017-09-02T22:07:57.739Z,11.20
2017-09-02T22:10:25.283Z,11.10
2017-09-02T22:12:52.827Z,11.10
2017-09-02T22:15:20.374Z,11.10
2017-09-02T22:17:49.099Z,11.10
2017-09-02T22:20:17.045Z,11.10
2017-09-02T22:22:44.585Z,11.10
2017-09-02T22:25:12.183Z,11.10
2017-09-02T22:27:39.732Z,11.10
2017-09-02T22:30:07.253Z,11.10
2017-09-02T22:32:34.805Z,11.00
2017-09-02T22:35:02.355Z,10.90
2017-09-02T22:37:29.887Z,10.90
2017-09-02T22:39:57.435Z,10.90
2017-09-02T22:42:24.968Z,10.90
2017-09-02T22:44:52.512Z,10.80
2017-09-02T22:47:20.030Z,10.80
2017-09-02T22:49:47.572Z,10.80
2017-09-02T22:52:15.092Z,10.70
2017-09-02T22:54:42.676Z,10.80
2017-09-02T22:57:10.273Z,10.70
2017-09-02T22:59:37.865Z,10.70
2017-09-02T23:02:05.410Z,10.70
2017-09-02T23:04:32.961Z,10.70
2017-09-02T23:07:00.514Z,10.70
2017-09-02T23:09:28.041Z,10.60
2017-09-02T23:11:55.765Z,10.60
2017-09-02T23:14:23.297Z,10.70
2017-09-02T23:16:50.831Z,10.60
2017-09-02T23:19:19.171Z,10.50
2017-09-02T23:21:47.103Z,10.50
2017-09-02T23:24:14.619Z,10.50
2017-09-02T23:26:42.180Z,10.50
2017-09-02T23:29:09.713Z,10.50
2017-09-02T23:31:37.272Z,10.50
2017-09-02T23:34:04.795Z,10.50
2017-09-02T23:36:32.322Z,10.50
2017-09-02T23:38:59.860Z,10.50
2017-09-02T23:41:27.383Z,10.40
2017-09-02T23:43:54.938Z,10.50
2017-09-02T23:46:22.471Z,10.40
2017-09-02T23:48:50.030Z,10.40
2017-09-02T23:51:17.555Z,10.40
2017-09-02T23:53:45.136Z,10.30
2017-09-02T23:56:12.656Z,10.30
2017-09-02T23:58:40.212Z,10.30
